Time;durP1;ratioP1;P1;durP2;ratioP2;P2;SDS_P1;SDS_P2;PMS_P1;PMS_P2;Temp;Humidity;BMP_temperature;BMP_pressure;BME280_temperature;BME280_humidity;BME280_pressure;Samples;Min_cycle;Max_cycle;Signal;HPM_P1;HPM_P2
2023/07/20 00:01:50;;;;;;;;;0.75;0.75;;;;;17.98;70.39;101483.63;4963984;28;8856;-69
2023/07/20 00:04:35;;;;;;;;;0.00;0.00;;;;;17.96;70.10;101474.03;4949102;28;8808;-69
2023/07/20 00:07:02;;;;;;;;;1.25;0.00;;;;;17.93;70.12;101467.13;4949570;28;8832;-70
2023/07/20 00:09:28;;;;;;;;;0.00;0.00;;;;;17.93;70.21;101475.31;4983231;28;8824;-69
2023/07/20 00:11:55;;;;;;;;;0.25;0.25;;;;;17.93;70.45;101475.31;4949372;28;8848;-69
2023/07/20 00:14:21;;;;;;;;;1.00;1.00;;;;;17.93;70.19;101475.31;4948554;28;8909;-69
2023/07/20 00:16:55;;;;;;;;;1.00;1.00;;;;;17.91;70.34;101477.44;4952893;28;8862;-69
2023/07/20 00:19:26;;;;;;;;;2.00;1.00;;;;;17.91;70.39;101482.88;4946666;28;8840;-71
2023/07/20 00:21:54;;;;;;;;;1.00;1.00;;;;;17.88;70.48;101477.06;4948342;28;9664;-69
2023/07/20 00:24:21;;;;;;;;;0.33;0.33;;;;;17.88;70.58;101477.88;4949950;28;8955;-67
2023/07/20 00:26:47;;;;;;;;;2.00;2.00;;;;;17.86;70.64;101474.53;4989707;28;8953;-68
2023/07/20 00:29:14;;;;;;;;;1.75;0.50;;;;;17.85;70.38;101467.44;4949255;28;8958;-67
2023/07/20 00:31:42;;;;;;;;;0.00;0.00;;;;;17.84;70.79;101471.22;4948413;28;8840;-67
2023/07/20 00:34:08;;;;;;;;;2.00;2.00;;;;;17.82;70.49;101478.78;4948752;28;8843;-66
2023/07/20 00:36:35;;;;;;;;;1.00;1.00;;;;;17.80;70.70;101475.47;4967294;28;9021;-67
2023/07/20 00:39:02;;;;;;;;;0.00;0.00;;;;;17.78;70.47;101472.97;4944884;29;9134;-67
2023/07/20 00:41:29;;;;;;;;;1.00;1.00;;;;;17.74;70.70;101463.59;4961715;28;8870;-68
2023/07/20 00:43:56;;;;;;;;;0.50;0.50;;;;;17.71;70.68;101461.28;4949286;29;9691;-66
2023/07/20 00:46:24;;;;;;;;;0.00;0.00;;;;;17.69;70.55;101459.84;4949029;28;8867;-67
2023/07/20 00:48:53;;;;;;;;;1.00;1.00;;;;;17.68;70.82;101466.34;4967493;28;9010;-68
2023/07/20 00:51:21;;;;;;;;;2.33;1.67;;;;;17.67;70.57;101457.34;4950987;28;9813;-67
2023/07/20 00:53:48;;;;;;;;;0.67;0.67;;;;;17.66;70.75;101460.28;5035300;28;9099;-67
2023/07/20 00:56:15;;;;;;;;;1.00;1.00;;;;;17.63;70.54;101453.41;4952569;28;9696;-67
2023/07/20 00:58:42;;;;;;;;;1.67;1.67;;;;;17.62;70.65;101457.19;4950005;28;9007;-67
2023/07/20 01:01:09;;;;;;;;;1.00;1.00;;;;;17.60;70.81;101458.47;4950893;28;8921;-67
2023/07/20 01:03:35;;;;;;;;;1.00;1.00;;;;;17.59;70.92;101465.00;4935515;28;8922;-67
2023/07/20 01:06:21;;;;;;;;;0.00;0.00;;;;;17.58;70.49;101461.41;4951360;28;9683;-67
2023/07/20 01:09:03;;;;;;;;;1.00;1.00;;;;;17.57;70.52;101464.38;4934822;28;10040;-66
2023/07/20 01:11:42;;;;;;;;;1.00;1.00;;;;;17.56;70.40;101474.44;4944898;28;9183;-69
2023/07/20 01:14:11;;;;;;;;;1.00;1.00;;;;;17.54;70.35;101473.81;4966512;28;8852;-67
2023/07/20 01:16:38;;;;;;;;;1.67;1.33;;;;;17.52;70.62;101471.31;4952205;28;8962;-67
2023/07/20 01:19:05;;;;;;;;;1.00;0.00;;;;;17.50;70.49;101472.59;4952200;28;9087;-67
2023/07/20 01:21:39;;;;;;;;;1.33;0.00;;;;;17.48;70.52;101475.53;4966162;28;9020;-68
2023/07/20 01:24:28;;;;;;;;;0.00;0.00;;;;;17.46;70.40;101480.41;4992753;28;9007;-66
2023/07/20 01:27:22;;;;;;;;;1.33;1.33;;;;;17.41;70.24;101473.94;4951710;28;9194;-68
2023/07/20 01:30:20;;;;;;;;;3.67;2.00;;;;;17.39;70.55;101467.91;4961893;28;9211;-68
2023/07/20 01:32:48;;;;;;;;;1.00;1.00;;;;;17.37;70.45;101473.56;4950772;28;9070;-67
2023/07/20 01:35:16;;;;;;;;;0.00;0.00;;;;;17.37;70.64;101464.56;4951284;28;8972;-68
2023/07/20 01:37:46;;;;;;;;;1.33;1.33;;;;;17.35;70.60;101467.53;4951421;28;8840;-67
2023/07/20 01:40:14;;;;;;;;;0.67;0.67;;;;;17.34;70.85;101465.88;4953228;28;9740;-67
2023/07/20 01:42:46;;;;;;;;;0.00;0.00;;;;;17.35;70.52;101466.69;4951005;28;9729;-67
2023/07/20 01:45:13;;;;;;;;;2.00;2.00;;;;;17.34;70.66;101465.00;4950387;28;9130;-66
2023/07/20 01:47:39;;;;;;;;;0.00;0.00;;;;;17.33;70.54;101469.63;4934743;28;9023;-68
2023/07/20 01:50:07;;;;;;;;;1.00;1.00;;;;;17.30;70.80;101467.38;4950448;28;8955;-68
2023/07/20 01:52:33;;;;;;;;;2.00;2.00;;;;;17.28;70.80;101464.84;4950253;28;8924;-67
2023/07/20 01:54:59;;;;;;;;;0.67;0.00;;;;;17.26;70.67;101472.41;4986568;28;8959;-66
2023/07/20 01:57:26;;;;;;;;;2.00;1.00;;;;;17.26;70.68;101466.16;4966242;28;8930;-66
2023/07/20 01:59:52;;;;;;;;;1.67;1.67;;;;;17.25;70.47;101459.03;4950001;28;9170;-66
2023/07/20 02:02:20;;;;;;;;;1.00;1.00;;;;;17.24;70.79;101465.53;4949824;28;9169;-66
2023/07/20 02:04:47;;;;;;;;;0.67;0.67;;;;;17.21;70.67;101460.53;4966598;28;9822;-67
2023/07/20 02:07:13;;;;;;;;;0.00;0.00;;;;;17.17;70.57;101462.03;4965791;28;9222;-67
2023/07/20 02:09:40;;;;;;;;;1.00;1.00;;;;;17.16;70.55;101466.63;4965533;28;9046;-68
2023/07/20 02:12:07;;;;;;;;;3.00;2.00;;;;;17.13;70.64;101475.22;4949592;28;8933;-66
2023/07/20 02:14:33;;;;;;;;;3.33;2.00;;;;;17.11;70.66;101471.91;4965605;28;9075;-68
2023/07/20 02:17:01;;;;;;;;;1.00;1.00;;;;;17.10;70.44;101470.25;4966348;28;9091;-67
2023/07/20 02:19:29;;;;;;;;;2.00;2.00;;;;;17.05;70.67;101470.94;4950428;28;9773;-69
2023/07/20 02:21:56;;;;;;;;;2.00;2.00;;;;;17.04;70.72;101471.13;4950853;28;8982;-67
2023/07/20 02:24:23;;;;;;;;;1.67;1.67;;;;;17.02;71.01;101474.09;4946471;28;8955;-67
2023/07/20 02:26:49;;;;;;;;;1.67;1.00;;;;;16.99;70.91;101473.69;4943788;28;9863;-68
2023/07/20 02:29:16;;;;;;;;;3.00;2.00;;;;;16.98;70.53;101469.31;4951155;28;9002;-68
2023/07/20 02:31:42;;;;;;;;;1.00;1.00;;;;;16.95;70.61;101467.84;4965294;28;9121;-68
2023/07/20 02:34:09;;;;;;;;;1.33;1.33;;;;;16.93;70.72;101467.22;4949852;28;9018;-67
2023/07/20 02:36:36;;;;;;;;;1.00;1.00;;;;;16.91;70.79;101465.81;4965495;28;9190;-67
2023/07/20 02:39:03;;;;;;;;;2.00;2.00;;;;;16.91;70.86;101471.25;4949690;28;9180;-67
2023/07/20 02:41:32;;;;;;;;;1.33;1.33;;;;;16.89;70.73;101468.72;4950283;28;9083;-67
2023/07/20 02:43:58;;;;;;;;;1.00;1.00;;;;;16.88;71.03;101477.13;4950294;28;9169;-68
2023/07/20 02:46:25;;;;;;;;;1.00;1.00;;;;;16.87;70.91;101475.47;4943542;28;9087;-67
2023/07/20 02:48:52;;;;;;;;;1.67;1.67;;;;;16.84;70.74;101468.56;4948506;28;11044;-67
2023/07/20 02:51:18;;;;;;;;;2.00;2.00;;;;;16.82;70.92;101473.41;4950240;28;10059;-66
2023/07/20 02:53:45;;;;;;;;;1.00;1.00;;;;;16.80;70.89;101489.91;4950223;28;9066;-68
2023/07/20 02:56:11;;;;;;;;;1.00;1.00;;;;;16.79;70.89;101485.53;4965410;28;9172;-68
2023/07/20 02:58:43;;;;;;;;;1.00;1.00;;;;;16.80;70.70;101489.09;4948624;28;9182;-67
2023/07/20 03:01:10;;;;;;;;;1.00;1.00;;;;;16.78;70.79;101491.22;4949185;28;9188;-68
2023/07/20 03:03:38;;;;;;;;;3.00;0.33;;;;;16.75;70.26;101495.19;4951103;28;9234;-67
2023/07/20 03:06:05;;;;;;;;;1.00;0.33;;;;;16.75;70.25;101494.38;4980900;28;9092;-67
2023/07/20 03:08:32;;;;;;;;;2.67;2.67;;;;;16.72;70.50;101489.31;4949299;28;9255;-66
2023/07/20 03:10:58;;;;;;;;;2.00;2.00;;;;;16.70;70.45;101499.59;4949970;28;9250;-67
2023/07/20 03:13:25;;;;;;;;;1.67;1.00;;;;;16.66;70.38;101495.66;4965099;28;9238;-67
2023/07/20 03:15:53;;;;;;;;;1.00;1.00;;;;;16.64;70.73;101497.75;4949020;28;9256;-68
2023/07/20 03:18:19;;;;;;;;;0.67;0.67;;;;;16.61;70.09;101493.59;4961640;28;10222;-68
2023/07/20 03:20:46;;;;;;;;;1.00;1.00;;;;;16.62;69.99;101497.13;4953448;28;9083;-66
2023/07/20 03:23:12;;;;;;;;;0.67;0.67;;;;;16.59;70.06;101498.41;4952702;28;9176;-68
2023/07/20 03:25:39;;;;;;;;;1.67;0.67;;;;;16.60;69.88;101512.81;4965116;28;9080;-66
2023/07/20 03:28:07;;;;;;;;;2.33;1.00;;;;;16.58;69.93;101510.31;4964727;28;9912;-66
2023/07/20 03:30:34;;;;;;;;;1.00;0.00;;;;;16.58;69.77;101507.59;4946752;28;9197;-67
2023/07/20 03:33:05;;;;;;;;;0.00;0.00;;;;;16.55;70.01;101511.59;4962071;28;9192;-67
2023/07/20 03:35:31;;;;;;;;;1.00;1.00;;;;;16.53;69.68;101512.88;4950182;28;9148;-67
2023/07/20 03:37:58;;;;;;;;;0.67;0.67;;;;;16.51;69.81;101517.69;4964949;28;9921;-67
2023/07/20 03:40:25;;;;;;;;;0.50;0.50;;;;;16.49;69.85;101517.06;4964549;28;9375;-66
2023/07/20 03:42:52;;;;;;;;;1.00;1.00;;;;;16.47;70.06;101521.88;4948754;28;9096;-67
2023/07/20 03:45:18;;;;;;;;;1.67;1.00;;;;;16.44;69.95;101523.13;4949230;28;9898;-67
2023/07/20 03:47:48;;;;;;;;;0.00;0.00;;;;;16.42;70.06;101510.84;4964382;28;9215;-67
2023/07/20 03:50:14;;;;;;;;;0.00;0.00;;;;;16.39;70.02;101516.69;4947806;28;9317;-68
2023/07/20 03:52:41;;;;;;;;;1.00;1.00;;;;;16.36;69.99;101506.25;4949690;28;9152;-67
2023/07/20 03:55:10;;;;;;;;;0.67;0.67;;;;;16.34;69.90;101513.78;4964672;28;9157;-68
2023/07/20 03:57:36;;;;;;;;;1.67;0.67;;;;;16.34;70.06;101513.78;4965112;28;9094;-68
2023/07/20 04:00:06;;;;;;;;;1.00;1.00;;;;;16.32;69.78;101514.81;4952521;28;9240;-68
2023/07/20 04:02:38;;;;;;;;;1.00;1.00;;;;;16.29;69.50;101520.72;4948272;28;9086;-67
2023/07/20 04:05:04;;;;;;;;;3.00;1.67;;;;;16.28;69.27;101515.47;4948408;28;9283;-67
2023/07/20 04:07:31;;;;;;;;;1.00;1.00;;;;;16.30;69.89;101514.22;4963254;28;9291;-68
2023/07/20 04:09:58;;;;;;;;;1.00;1.00;;;;;16.29;69.70;101526.16;4945221;28;9399;-67
2023/07/20 04:12:24;;;;;;;;;0.00;0.00;;;;;16.30;69.88;101527.81;4949133;28;10209;-67
2023/07/20 04:14:51;;;;;;;;;1.00;1.00;;;;;16.29;69.74;101522.59;4948748;28;9319;-67
2023/07/20 04:17:18;;;;;;;;;1.00;1.00;;;;;16.27;69.73;101522.78;4948597;28;9345;-67
2023/07/20 04:19:44;;;;;;;;;1.00;1.00;;;;;16.25;69.36;101530.34;4984916;28;9427;-66
2023/07/20 04:22:11;;;;;;;;;2.00;1.00;;;;;16.23;69.85;101524.28;4949018;28;9361;-68
2023/07/20 04:24:37;;;;;;;;;1.00;1.00;;;;;16.21;69.89;101528.28;4945686;28;9240;-67
2023/07/20 04:27:04;;;;;;;;;0.00;0.00;;;;;16.18;69.81;101529.53;4945805;28;9455;-66
2023/07/20 04:29:31;;;;;;;;;1.00;1.00;;;;;16.17;70.14;101533.28;4949604;28;9194;-66
2023/07/20 04:31:57;;;;;;;;;1.00;1.00;;;;;16.15;70.33;101527.22;4968342;28;9855;-67
2023/07/20 04:34:24;;;;;;;;;2.00;2.00;;;;;16.14;70.00;101535.59;4937159;28;9067;-67
2023/07/20 04:36:51;;;;;;;;;1.67;1.67;;;;;16.12;69.94;101535.78;4949095;28;9288;-67
2023/07/20 04:39:17;;;;;;;;;1.50;1.00;;;;;16.13;70.42;101544.81;4958824;28;9353;-67
2023/07/20 04:41:59;;;;;;;;;1.00;1.00;;;;;16.12;70.16;101543.13;4944837;29;9407;-66
2023/07/20 04:44:26;;;;;;;;;0.33;0.33;;;;;16.12;70.06;101541.22;4948369;29;9363;-67
2023/07/20 04:46:52;;;;;;;;;1.33;1.33;;;;;16.12;70.14;101532.25;4948316;28;9323;-67
2023/07/20 04:49:19;;;;;;;;;1.00;1.00;;;;;16.12;70.01;101543.94;4947911;28;9392;-67
2023/07/20 04:51:46;;;;;;;;;1.33;1.33;;;;;16.15;70.04;101543.53;4950877;28;9255;-67
2023/07/20 04:54:13;;;;;;;;;2.00;1.00;;;;;16.18;70.26;101547.72;4947961;28;9336;-67
2023/07/20 04:56:40;;;;;;;;;5.00;1.00;;;;;16.20;70.15;101546.44;4948943;29;9300;-68
2023/07/20 04:59:09;;;;;;;;;1.00;1.00;;;;;16.21;70.00;101564.41;4946866;28;9378;-67
2023/07/20 05:01:36;;;;;;;;;1.00;1.00;;;;;16.19;70.10;101555.63;4943798;28;9262;-66
2023/07/20 05:04:02;;;;;;;;;2.00;0.00;;;;;16.22;70.23;101555.22;4944505;29;9178;-67
2023/07/20 05:06:29;;;;;;;;;0.00;0.00;;;;;16.24;70.05;101547.66;4936749;28;9260;-68
2023/07/20 05:08:55;;;;;;;;;1.00;1.00;;;;;16.27;70.53;101552.69;4955378;28;9376;-68
2023/07/20 05:11:22;;;;;;;;;0.00;0.00;;;;;16.30;70.19;101552.25;4969677;28;9345;-68
2023/07/20 05:13:49;;;;;;;;;0.67;0.00;;;;;16.32;70.04;101550.16;4961192;28;9269;-68
2023/07/20 05:16:17;;;;;;;;;0.00;0.00;;;;;16.34;69.76;101549.13;4979128;28;9159;-66
2023/07/20 05:18:43;;;;;;;;;1.00;1.00;;;;;16.36;69.98;101552.44;4960752;28;9330;-67
2023/07/20 05:21:11;;;;;;;;;1.33;1.00;;;;;16.38;69.64;101550.34;4967234;28;9320;-67
2023/07/20 05:23:37;;;;;;;;;1.00;1.00;;;;;16.38;69.33;101558.50;4932317;28;9275;-67
2023/07/20 05:26:04;;;;;;;;;1.67;1.67;;;;;16.39;69.59;101546.59;4946129;28;9078;-67
2023/07/20 05:28:31;;;;;;;;;1.67;1.67;;;;;16.42;69.99;101552.44;4947862;28;9334;-67
2023/07/20 05:30:59;;;;;;;;;0.67;0.00;;;;;16.44;69.93;101554.91;4947537;29;9173;-66
2023/07/20 05:33:26;;;;;;;;;0.00;0.00;;;;;16.45;69.68;101553.88;4953826;28;9232;-67
2023/07/20 05:35:52;;;;;;;;;1.00;1.00;;;;;16.47;69.46;101558.03;4946965;28;9826;-67
2023/07/20 05:38:19;;;;;;;;;3.00;2.00;;;;;16.51;69.34;101553.00;4948391;28;9271;-66
2023/07/20 05:40:46;;;;;;;;;1.00;1.00;;;;;16.60;69.80;101557.13;4950383;28;9165;-66
2023/07/20 05:43:13;;;;;;;;;1.00;1.00;;;;;16.75;69.55;101544.13;4954684;28;9157;-68
2023/07/20 05:45:44;;;;;;;;;1.67;0.67;;;;;16.89;68.49;101550.31;4941199;28;9091;-67
2023/07/20 05:48:11;;;;;;;;;1.00;1.00;;;;;17.02;67.43;101552.13;4949351;28;8978;-66
2023/07/20 05:50:43;;;;;;;;;1.00;1.00;;;;;17.15;66.87;101553.94;4964574;28;8964;-67
2023/07/20 05:53:09;;;;;;;;;2.00;1.00;;;;;17.25;66.35;101552.34;4948005;28;9049;-67
2023/07/20 05:55:35;;;;;;;;;2.00;2.00;;;;;17.41;66.22;101555.59;4947526;28;9003;-67
2023/07/20 05:58:04;;;;;;;;;0.75;0.75;;;;;17.51;65.27;101556.78;4977210;28;9758;-67
2023/07/20 06:00:30;;;;;;;;;0.25;0.00;;;;;17.60;64.00;101551.03;4945046;28;8903;-66
2023/07/20 06:02:56;;;;;;;;;0.75;0.00;;;;;17.70;63.44;101554.06;4950348;28;8839;-66
2023/07/20 06:05:23;;;;;;;;;0.00;0.00;;;;;17.76;63.06;101553.22;4952232;28;8844;-66
2023/07/20 06:07:54;;;;;;;;;0.00;0.00;;;;;17.85;62.51;101554.59;4951223;28;8860;-67
2023/07/20 06:10:21;;;;;;;;;0.00;0.00;;;;;17.93;62.57;101551.56;4950020;28;8832;-66
2023/07/20 06:12:47;;;;;;;;;0.00;0.00;;;;;18.01;62.70;101545.81;4950877;28;8850;-67
2023/07/20 06:15:34;;;;;;;;;0.00;0.00;;;;;18.01;61.86;101554.00;4978641;28;9676;-66
2023/07/20 06:18:01;;;;;;;;;0.00;0.00;;;;;17.98;61.70;101548.16;4965613;28;8836;-66
2023/07/20 06:20:27;;;;;;;;;0.00;0.00;;;;;17.97;61.55;101552.78;4948882;28;8851;-67
2023/07/20 06:22:54;;;;;;;;;0.00;0.00;;;;;17.94;61.24;101547.78;4950964;28;8851;-67
2023/07/20 06:25:21;;;;;;;;;0.00;0.00;;;;;17.90;61.14;101560.19;4951199;28;8831;-67
2023/07/20 06:27:50;;;;;;;;;0.25;0.25;;;;;17.90;61.11;101556.63;4950576;28;8864;-66
2023/07/20 06:30:16;;;;;;;;;0.25;0.25;;;;;17.91;61.50;101561.03;4949981;28;8848;-66
2023/07/20 06:32:43;;;;;;;;;0.00;0.00;;;;;17.90;61.59;101559.34;4950545;28;8839;-67
2023/07/20 06:35:09;;;;;;;;;0.25;0.00;;;;;17.87;61.41;101562.56;4950645;28;8886;-68
2023/07/20 06:37:36;;;;;;;;;0.00;0.00;;;;;17.84;61.33;101558.38;4950762;28;8848;-67
2023/07/20 06:40:06;;;;;;;;;0.00;0.00;;;;;17.77;61.42;101560.31;4949980;28;8994;-67
2023/07/20 06:42:35;;;;;;;;;0.00;0.00;;;;;17.77;61.93;101554.88;4949088;28;8842;-67
2023/07/20 06:45:05;;;;;;;;;1.00;1.00;;;;;17.81;62.24;101550.66;4949984;28;8812;-67
2023/07/20 06:47:32;;;;;;;;;3.00;3.00;;;;;17.77;61.86;101558.44;4950162;28;9525;-67
2023/07/20 06:49:58;;;;;;;;;1.00;1.00;;;;;17.74;61.77;101564.34;4949758;28;8973;-67
2023/07/20 06:52:25;;;;;;;;;1.75;1.75;;;;;17.76;61.70;101562.22;4950101;28;8859;-66
2023/07/20 06:54:51;;;;;;;;;0.75;0.75;;;;;17.71;61.37;101570.22;4950303;28;8856;-67
2023/07/20 06:57:18;;;;;;;;;0.00;0.00;;;;;17.68;61.78;101565.19;4950446;28;8909;-67
2023/07/20 06:59:45;;;;;;;;;0.75;0.00;;;;;17.66;61.27;101558.31;4949683;28;8812;-67
2023/07/20 07:02:17;;;;;;;;;0.00;0.00;;;;;17.64;60.80;101566.69;4949830;28;8901;-66
2023/07/20 07:04:48;;;;;;;;;0.00;0.00;;;;;17.65;60.80;101568.38;4950052;28;8824;-67
2023/07/20 07:07:15;;;;;;;;;0.00;0.00;;;;;17.66;60.80;101564.59;4950427;28;8856;-67
2023/07/20 07:09:52;;;;;;;;;0.00;0.00;;;;;17.65;60.59;101571.09;4949490;28;8958;-66
2023/07/20 07:12:19;;;;;;;;;0.00;0.00;;;;;17.63;60.51;101566.94;4964763;28;8848;-66
2023/07/20 07:14:45;;;;;;;;;0.00;0.00;;;;;17.66;60.73;101577.34;4949397;28;8875;-66
2023/07/20 07:17:12;;;;;;;;;0.00;0.00;;;;;17.68;60.57;101573.38;4981218;28;9618;-67
2023/07/20 07:19:38;;;;;;;;;0.00;0.00;;;;;17.66;59.76;101570.06;4951213;28;8860;-67
2023/07/20 07:22:05;;;;;;;;;0.00;0.00;;;;;17.68;59.69;101576.09;4964337;28;8910;-67
2023/07/20 07:24:33;;;;;;;;;0.00;0.00;;;;;17.65;59.70;101567.53;4963865;28;9509;-68
2023/07/20 07:27:01;;;;;;;;;0.00;0.00;;;;;17.64;59.56;101574.88;4948320;28;8990;-67
2023/07/20 07:29:28;;;;;;;;;0.00;0.00;;;;;17.68;59.86;101573.38;4948426;28;8929;-66
2023/07/20 07:31:56;;;;;;;;;0.00;0.00;;;;;17.71;59.58;101570.22;4949394;28;8823;-67
2023/07/20 07:34:22;;;;;;;;;0.00;0.00;;;;;17.76;59.47;101567.66;4949117;28;8835;-67
2023/07/20 07:36:50;;;;;;;;;0.00;0.00;;;;;17.79;59.45;101571.84;4949548;28;9548;-67
2023/07/20 07:39:16;;;;;;;;;0.50;0.00;;;;;17.77;58.08;101574.78;4948742;28;8844;-67
2023/07/20 07:41:45;;;;;;;;;0.00;0.00;;;;;17.76;57.78;101575.84;4948989;28;8816;-67
2023/07/20 07:44:12;;;;;;;;;0.00;0.00;;;;;17.76;57.72;101577.72;4949522;28;8840;-67
2023/07/20 07:46:39;;;;;;;;;0.00;0.00;;;;;17.79;57.46;101567.22;4949591;28;8821;-67
2023/07/20 07:49:05;;;;;;;;;0.00;0.00;;;;;17.81;56.96;101572.44;4948772;28;9561;-67
2023/07/20 07:51:32;;;;;;;;;0.25;0.25;;;;;17.85;56.54;101581.00;4956286;28;8901;-67
2023/07/20 07:53:59;;;;;;;;;0.00;0.00;;;;;17.86;56.68;101579.94;4948798;28;9618;-67
2023/07/20 07:56:25;;;;;;;;;0.00;0.00;;;;;17.90;56.78;101590.16;4964389;28;8957;-67
2023/07/20 07:58:52;;;;;;;;;0.00;0.00;;;;;17.94;57.29;101593.25;4948315;28;8858;-66
2023/07/20 08:01:19;;;;;;;;;0.00;0.00;;;;;17.99;57.03;101596.16;4948452;28;8836;-66
2023/07/20 08:03:47;;;;;;;;;0.00;0.00;;;;;18.01;57.17;101588.59;4948837;28;8859;-67
2023/07/20 08:06:14;;;;;;;;;0.00;0.00;;;;;18.03;56.46;101587.31;4963915;28;8936;-67
2023/07/20 08:08:42;;;;;;;;;0.00;0.00;;;;;18.03;56.57;101584.59;4949504;28;8872;-67
2023/07/20 08:11:09;;;;;;;;;0.00;0.00;;;;;18.03;56.34;101589.22;4949089;28;8859;-67
2023/07/20 08:13:36;;;;;;;;;0.00;0.00;;;;;18.07;56.35;101589.56;4948101;28;8843;-66
2023/07/20 08:16:03;;;;;;;;;0.00;0.00;;;;;18.11;56.07;101582.59;4963637;28;8837;-67
2023/07/20 08:18:29;;;;;;;;;0.00;0.00;;;;;18.17;55.92;101590.72;4962762;28;8852;-69
2023/07/20 08:20:56;;;;;;;;;0.00;0.00;;;;;18.19;55.56;101590.47;4948749;28;8820;-68
2023/07/20 08:23:23;;;;;;;;;0.00;0.00;;;;;18.25;55.24;101587.69;4949231;28;8843;-67
2023/07/20 08:25:50;;;;;;;;;0.00;0.00;;;;;18.33;55.57;101578.38;4947549;28;9586;-66
2023/07/20 08:28:16;;;;;;;;;0.00;0.00;;;;;18.40;55.11;101583.75;4949088;28;9557;-66
2023/07/20 08:30:46;;;;;;;;;0.00;0.00;;;;;18.46;55.31;101580.09;4963348;28;8852;-67
2023/07/20 08:33:13;;;;;;;;;0.00;0.00;;;;;18.45;55.41;101581.19;4947797;28;8825;-67
2023/07/20 08:35:40;;;;;;;;;0.00;0.00;;;;;18.41;55.61;101580.81;4948275;28;8836;-67
2023/07/20 08:38:07;;;;;;;;;0.00;0.00;;;;;18.35;55.54;101589.03;4963844;28;8828;-68
2023/07/20 08:40:39;;;;;;;;;0.00;0.00;;;;;18.31;55.75;101587.84;4941852;28;8835;-67
2023/07/20 08:43:06;;;;;;;;;0.00;0.00;;;;;18.25;55.62;101589.59;4947138;29;8828;-67
2023/07/20 08:45:34;;;;;;;;;0.00;0.00;;;;;18.23;55.83;101589.81;4948990;28;8886;-68
2023/07/20 08:48:02;;;;;;;;;0.00;0.00;;;;;18.20;55.37;101584.00;4948950;28;8852;-67
2023/07/20 08:50:30;;;;;;;;;0.75;0.50;;;;;18.15;55.06;101592.00;4948701;29;8974;-68
2023/07/20 08:52:58;;;;;;;;;0.00;0.00;;;;;18.12;55.18;101584.28;4949208;28;8962;-66
2023/07/20 08:55:29;;;;;;;;;0.50;0.50;;;;;18.09;54.73;101592.91;4949091;29;8885;-67
2023/07/20 08:58:00;;;;;;;;;0.00;0.00;;;;;18.13;54.78;101589.50;4963635;28;8874;-67
2023/07/20 09:00:29;;;;;;;;;0.00;0.00;;;;;18.22;54.40;101593.59;4948429;29;8824;-67
2023/07/20 09:02:56;;;;;;;;;0.00;0.00;;;;;18.28;53.87;101592.69;4948844;29;8852;-68
2023/07/20 09:05:26;;;;;;;;;0.00;0.00;;;;;18.40;53.51;101572.88;4949065;28;8820;-67
2023/07/20 09:07:53;;;;;;;;;0.00;0.00;;;;;18.53;53.03;101580.88;4949013;29;8840;-67
2023/07/20 09:10:21;;;;;;;;;0.00;0.00;;;;;18.60;52.43;101581.63;4948498;28;8856;-68
2023/07/20 09:12:48;;;;;;;;;0.00;0.00;;;;;18.63;52.45;101572.97;4948934;28;8899;-68
2023/07/20 09:15:14;;;;;;;;;1.00;1.00;;;;;18.67;52.59;101576.06;4952235;28;8820;-68
2023/07/20 09:17:46;;;;;;;;;0.25;0.25;;;;;18.60;52.29;101580.78;4951998;28;8836;-68
2023/07/20 09:20:15;;;;;;;;;0.00;0.00;;;;;18.58;52.18;101575.56;4951048;28;8852;-68
2023/07/20 09:22:42;;;;;;;;;1.00;1.00;;;;;18.60;52.52;101570.72;4951689;28;8866;-68
2023/07/20 09:25:17;;;;;;;;;1.00;1.00;;;;;18.69;52.19;101576.69;4966648;28;9007;-68
2023/07/20 09:27:48;;;;;;;;;0.75;0.00;;;;;18.69;51.77;101582.13;4951905;28;9557;-68
2023/07/20 09:30:16;;;;;;;;;0.00;0.00;;;;;18.60;50.53;101584.34;4951925;28;8839;-69
2023/07/20 09:32:50;;;;;;;;;1.25;0.00;;;;;18.65;50.96;101584.50;4951678;28;8866;-67
2023/07/20 09:35:22;;;;;;;;;0.00;0.00;;;;;18.66;50.46;101577.13;4952288;28;8840;-67
2023/07/20 09:37:54;;;;;;;;;0.00;0.00;;;;;18.73;50.03;101576.00;4966379;28;8832;-67
2023/07/20 09:40:41;;;;;;;;;0.00;0.00;;;;;18.81;49.29;101568.59;4951957;28;8844;-67
2023/07/20 09:43:11;;;;;;;;;0.00;0.00;;;;;18.86;48.92;101579.63;4952097;28;8824;-68
2023/07/20 09:45:41;;;;;;;;;0.00;0.00;;;;;18.90;48.96;101575.38;4951751;28;8824;-68
2023/07/20 09:48:12;;;;;;;;;0.00;0.00;;;;;18.94;49.01;101573.84;4951599;28;8784;-67
2023/07/20 09:50:48;;;;;;;;;0.00;0.00;;;;;18.97;48.89;101573.38;4951038;28;8868;-68
2023/07/20 09:53:17;;;;;;;;;0.00;0.00;;;;;18.98;49.02;101575.03;4951752;28;8862;-67
2023/07/20 09:55:46;;;;;;;;;0.00;0.00;;;;;19.03;49.44;101572.44;4950473;28;8919;-68
2023/07/20 09:58:12;;;;;;;;;0.25;0.25;;;;;19.02;49.33;101573.50;4950409;28;8848;-68
2023/07/20 10:00:43;;;;;;;;;0.00;0.00;;;;;19.02;49.57;101573.50;4966371;28;8851;-68
2023/07/20 10:03:20;;;;;;;;;0.00;0.00;;;;;18.99;49.54;101572.06;4935450;28;8824;-67
2023/07/20 10:05:54;;;;;;;;;0.00;0.00;;;;;18.99;50.02;101573.97;4949981;28;8962;-68
2023/07/20 10:08:24;;;;;;;;;0.00;0.00;;;;;19.01;50.30;101571.84;4966130;28;8918;-68
2023/07/20 10:10:54;;;;;;;;;0.00;0.00;;;;;18.99;50.20;101573.97;4950513;28;8828;-67
2023/07/20 10:13:28;;;;;;;;;0.00;0.00;;;;;19.00;50.13;101570.19;4950153;28;8855;-69
2023/07/20 10:16:03;;;;;;;;;0.00;0.00;;;;;18.99;49.81;101565.78;4951263;28;8913;-68
2023/07/20 10:18:33;;;;;;;;;0.00;0.00;;;;;18.99;49.42;101563.06;4988293;28;8918;-68
2023/07/20 10:21:01;;;;;;;;;0.00;0.00;;;;;19.00;49.88;101562.84;4969290;28;9605;-68
2023/07/20 10:23:32;;;;;;;;;0.00;0.00;;;;;19.03;50.42;101562.34;4950944;28;8843;-68
2023/07/20 10:26:01;;;;;;;;;0.00;0.00;;;;;19.09;50.86;101563.34;4950529;28;8843;-67
2023/07/20 10:28:28;;;;;;;;;0.25;0.25;;;;;19.12;51.37;101559.28;4951131;28;8850;-66
2023/07/20 10:30:54;;;;;;;;;0.25;0.00;;;;;19.13;51.41;101567.25;4965215;28;8878;-67
2023/07/20 10:33:21;;;;;;;;;1.00;1.00;;;;;19.15;51.15;101561.56;4950581;28;8836;-67
2023/07/20 10:36:01;;;;;;;;;2.00;2.00;;;;;19.15;50.04;101561.56;4950322;28;8863;-67
2023/07/20 10:38:38;;;;;;;;;1.00;1.00;;;;;19.12;49.98;101559.28;4942368;28;9052;-68
2023/07/20 10:41:19;;;;;;;;;1.00;1.00;;;;;19.13;49.83;101564.53;4965232;28;8855;-66
2023/07/20 10:43:47;;;;;;;;;1.00;1.00;;;;;19.13;49.99;101559.06;4931279;28;8836;-67
2023/07/20 10:46:14;;;;;;;;;0.50;0.50;;;;;19.16;50.01;101557.75;4949215;28;8832;-68
2023/07/20 10:49:02;;;;;;;;;1.75;1.75;;;;;19.12;48.83;101560.16;4950644;28;8820;-67
2023/07/20 10:51:28;;;;;;;;;1.25;1.25;;;;;19.06;49.17;101552.88;4949125;28;8972;-68
2023/07/20 10:53:58;;;;;;;;;1.00;1.00;;;;;19.08;49.69;101558.09;4950519;28;9614;-68
2023/07/20 10:56:31;;;;;;;;;1.00;1.00;;;;;19.10;50.44;101545.06;4949350;28;8863;-68
2023/07/20 10:58:59;;;;;;;;;0.25;0.25;;;;;19.12;50.82;101554.69;4949287;28;8917;-67
2023/07/20 11:01:30;;;;;;;;;0.00;0.00;;;;;19.16;50.87;101544.97;4950256;28;9667;-68
2023/07/20 11:04:00;;;;;;;;;0.50;0.50;;;;;19.21;50.73;101550.56;4950530;28;8852;-66
2023/07/20 11:06:26;;;;;;;;;0.00;0.00;;;;;19.23;50.56;101553.88;4950600;28;8836;-66
2023/07/20 11:09:10;;;;;;;;;0.50;0.50;;;;;19.22;50.10;101548.66;4950388;28;8962;-67
2023/07/20 11:11:39;;;;;;;;;0.75;0.75;;;;;19.23;50.45;101551.13;4950319;28;8824;-67
2023/07/20 11:14:07;;;;;;;;;0.00;0.00;;;;;19.33;50.58;101549.75;4950541;28;8943;-68
2023/07/20 11:16:46;;;;;;;;;1.25;1.25;;;;;19.47;50.90;101551.16;4949251;28;9581;-69
2023/07/20 11:19:17;;;;;;;;;1.25;1.25;;;;;19.53;50.66;101544.78;4964904;28;8954;-69
2023/07/20 11:21:51;;;;;;;;;1.50;1.50;;;;;19.62;50.83;101537.09;4949958;28;8808;-68
2023/07/20 11:24:29;;;;;;;;;1.75;1.75;;;;;19.80;51.21;101550.59;4949156;28;8909;-68
2023/07/20 11:26:56;;;;;;;;;1.00;1.00;;;;;19.93;50.21;101541.31;4948922;28;8809;-67
2023/07/20 11:29:25;;;;;;;;;1.75;1.75;;;;;19.96;50.28;101538.13;4950043;28;8848;-68
2023/07/20 11:31:59;;;;;;;;;1.00;1.00;;;;;20.04;50.84;101540.50;4963797;28;8867;-69
2023/07/20 11:34:27;;;;;;;;;1.00;1.00;;;;;20.15;50.79;101536.09;4949794;28;8804;-68
2023/07/20 11:36:54;;;;;;;;;1.00;1.00;;;;;20.17;50.23;101536.66;4947838;28;8828;-68
2023/07/20 11:39:25;;;;;;;;;1.50;1.50;;;;;20.15;50.01;101534.19;4949871;28;8905;-68
2023/07/20 11:41:54;;;;;;;;;1.00;0.00;;;;;20.05;49.75;101536.69;4948316;28;8840;-68